Time;durP1;ratioP1;P1;durP2;ratioP2;P2;SDS_P1;SDS_P2;PMS_P1;PMS_P2;Temp;Humidity;BMP_temperature;BMP_pressure;BME280_temperature;BME280_humidity;BME280_pressure;Samples;Min_cycle;Max_cycle;Signal;HPM_P1;HPM_P2
2022/03/17 00:00:07;;;;;;;53.00;35.30;;;;;;;1.06;69.41;102116.59;88444;1271;79652;-66
2022/03/17 00:02:36;;;;;;;55.90;34.50;;;;;;;1.02;69.77;102119.34;88413;1271;84090;-67
2022/03/17 00:04:48;;;;;;;53.60;34.60;;;;;;;0.99;69.82;102122.17;88297;1270;99496;-64
2022/03/17 00:06:57;;;;;;;55.30;34.40;;;;;;;0.98;70.09;102127.17;88470;1271;87531;-64
2022/03/17 00:09:07;;;;;;;60.10;36.10;;;;;;;0.97;70.10;102125.65;88467;1271;94151;-68
2022/03/17 00:11:17;;;;;;;57.10;35.70;;;;;;;0.97;70.13;102124.05;88436;1271;78782;-69
2022/03/17 00:13:28;;;;;;;60.80;37.80;;;;;;;0.89;70.18;102125.76;88449;1271;85114;-67
2022/03/17 00:15:40;;;;;;;57.50;36.20;;;;;;;0.88;70.36;102128.80;88431;1271;97422;-66
2022/03/17 00:17:53;;;;;;;54.30;34.70;;;;;;;0.90;70.44;102134.58;88447;1271;87388;-68
2022/03/17 00:20:03;;;;;;;58.20;36.60;;;;;;;0.91;70.43;102139.08;88488;1271;96171;-63
2022/03/17 00:22:15;;;;;;;60.30;38.10;;;;;;;0.91;70.52;102138.38;88343;1274;77662;-64
2022/03/17 00:24:24;;;;;;;68.40;40.50;;;;;;;0.88;70.43;102141.23;88455;1271;82381;-67
2022/03/17 00:26:34;;;;;;;64.60;41.40;;;;;;;0.80;70.59;102144.50;88436;1271;98020;-69
2022/03/17 00:28:43;;;;;;;63.70;39.70;;;;;;;0.75;70.39;102146.05;88469;1271;87028;-67
2022/03/17 00:30:52;;;;;;;63.30;41.70;;;;;;;0.69;70.48;102145.64;88466;1271;93345;-64
2022/03/17 00:33:01;;;;;;;66.90;40.60;;;;;;;0.65;70.45;102147.15;88472;1271;80255;-63
2022/03/17 00:37:40;;;;;;;63.60;38.40;;;;;;;0.47;70.67;102145.80;88445;1271;97445;-64
2022/03/17 00:39:53;;;;;;;69.60;42.10;;;;;;;0.40;70.93;102144.05;88439;1271;86995;-63
2022/03/17 00:42:02;;;;;;;63.60;40.00;;;;;;;0.41;70.99;102144.52;88449;1271;95874;-63
2022/03/17 00:44:11;;;;;;;62.20;39.00;;;;;;;0.44;71.12;102145.97;88456;1271;79584;-69
2022/03/17 00:46:21;;;;;;;68.60;42.00;;;;;;;0.46;71.16;102144.27;88444;1271;81210;-67
2022/03/17 00:48:33;;;;;;;61.90;39.90;;;;;;;0.53;71.21;102139.77;88404;1271;99484;-66
2022/03/17 00:50:42;;;;;;;61.30;39.90;;;;;;;0.56;71.43;102141.02;88440;1270;87762;-63
2022/03/17 00:52:52;;;;;;;63.40;39.20;;;;;;;0.57;71.33;102142.91;88449;1270;95069;-63
2022/03/17 00:55:01;;;;;;;60.60;40.00;;;;;;;0.59;71.45;102141.92;88394;1271;81962;-64
2022/03/17 00:57:12;;;;;;;69.10;42.90;;;;;;;0.63;71.62;102140.51;88444;1271;82669;-64
2022/03/17 00:59:21;;;;;;;69.80;41.10;;;;;;;0.65;71.50;102142.31;88440;1271;98911;-67
2022/03/17 01:01:31;;;;;;;65.40;41.00;;;;;;;0.71;71.47;102140.61;88486;1270;87571;-67
2022/03/17 01:03:41;;;;;;;64.50;42.00;;;;;;;0.77;71.44;102145.95;88413;1271;95027;-67
2022/03/17 01:05:51;;;;;;;66.70;39.80;;;;;;;0.79;71.51;102145.80;88436;1271;80295;-66
2022/03/17 01:08:03;;;;;;;65.70;40.70;;;;;;;0.75;71.60;102142.64;88425;1271;82326;-66
2022/03/17 01:10:16;;;;;;;64.60;40.60;;;;;;;0.85;71.47;102144.07;88416;1271;100174;-64
2022/03/17 01:12:25;;;;;;;59.60;40.10;;;;;;;0.91;71.68;102146.77;88426;1271;87254;-65
2022/03/17 01:14:34;;;;;;;63.50;41.90;;;;;;;0.87;71.45;102146.58;88422;1271;95239;-67
2022/03/17 01:16:44;;;;;;;63.80;39.30;;;;;;;0.86;71.43;102148.06;88452;1271;79052;-67
2022/03/17 01:18:53;;;;;;;62.30;40.30;;;;;;;0.84;71.46;102149.08;88432;1271;81823;-67
2022/03/17 01:21:02;;;;;;;65.80;41.00;;;;;;;0.80;71.48;102150.88;88432;1271;99591;-68
2022/03/17 01:23:11;;;;;;;62.70;39.70;;;;;;;0.76;71.35;102148.27;88427;1271;89504;-68
2022/03/17 01:25:24;;;;;;;63.00;39.50;;;;;;;0.70;71.23;102153.23;88403;1271;94216;-65
2022/03/17 01:27:34;;;;;;;59.70;38.40;;;;;;;0.63;71.53;102153.63;88422;1271;79224;-65
2022/03/17 01:29:46;;;;;;;59.70;39.40;;;;;;;0.53;71.48;102155.00;88408;1270;82959;-67
2022/03/17 01:31:56;;;;;;;62.70;39.20;;;;;;;0.49;71.37;102152.60;88401;1271;100406;-67
2022/03/17 01:34:06;;;;;;;57.20;37.20;;;;;;;0.41;71.36;102153.00;88293;1271;91202;-65
2022/03/17 01:36:15;;;;;;;60.40;38.20;;;;;;;0.35;71.35;102155.29;88434;1271;95263;-66
2022/03/17 01:38:23;;;;;;;60.00;37.90;;;;;;;0.29;71.47;102154.02;88417;1270;79270;-67
2022/03/17 01:40:33;;;;;;;56.80;36.60;;;;;;;0.23;71.64;102153.81;88477;1270;83231;-64
2022/03/17 01:42:45;;;;;;;57.20;38.80;;;;;;;0.15;71.68;102156.36;88308;1271;100249;-64
2022/03/17 01:44:55;;;;;;;64.10;38.00;;;;;;;0.09;71.75;102159.71;88420;1271;88601;-67
2022/03/17 01:49:32;;;;;;;59.80;36.70;;;;;;;0.03;71.93;102169.56;88434;1271;79456;-66
2022/03/17 01:51:43;;;;;;;63.00;38.60;;;;;;;-0.01;71.89;102169.23;88438;1271;83006;-68
2022/03/17 01:53:55;;;;;;;58.90;37.60;;;;;;;-0.08;71.97;102166.59;88415;1271;96694;-69
2022/03/17 01:56:05;;;;;;;60.50;39.70;;;;;;;-0.11;71.99;102165.87;88397;1271;89123;-67
2022/03/17 01:58:15;;;;;;;65.10;41.20;;;;;;;-0.17;72.23;102165.66;88428;1271;95086;-67
2022/03/17 02:00:24;;;;;;;61.80;38.80;;;;;;;-0.23;72.36;102166.32;88415;1271;77089;-66
2022/03/17 02:02:33;;;;;;;62.40;38.00;;;;;;;-0.27;72.53;102167.24;88322;1270;82448;-66
2022/03/17 02:04:47;;;;;;;59.30;36.10;;;;;;;-0.32;72.44;102175.29;88437;1271;98799;-64
2022/03/17 02:06:56;;;;;;;57.70;37.60;;;;;;;-0.38;72.61;102176.26;88450;1271;89090;-64
2022/03/17 02:09:06;;;;;;;61.90;37.30;;;;;;;-0.43;72.54;102178.66;88443;1271;95833;-67
2022/03/17 02:13:48;;;;;;;65.20;37.80;;;;;;;-0.55;72.63;102182.96;88310;1271;82452;-69
2022/03/17 02:15:57;;;;;;;63.00;37.00;;;;;;;-0.57;72.92;102181.65;88430;1271;98721;-65
2022/03/17 02:18:09;;;;;;;56.30;35.10;;;;;;;-0.64;72.95;102183.20;88442;1271;88186;-64
2022/03/17 02:20:18;;;;;;;57.50;36.10;;;;;;;-0.67;72.97;102186.71;88405;1271;94192;-65
2022/03/17 02:22:30;;;;;;;60.30;38.20;;;;;;;-0.71;73.18;102188.49;88416;1271;81834;-65
2022/03/17 02:27:07;;;;;;;59.00;35.90;;;;;;;-0.72;72.96;102197.21;88413;1271;97954;-63
2022/03/17 02:29:17;;;;;;;58.50;39.80;;;;;;;-0.76;73.35;102197.44;88390;1271;89595;-63
2022/03/17 02:31:26;;;;;;;56.40;36.40;;;;;;;-0.80;73.29;102197.96;88424;1271;96388;-64
2022/03/17 02:33:40;;;;;;;68.20;40.20;;;;;;;-0.81;73.36;102199.81;88416;1271;77684;-65
2022/03/17 02:35:51;;;;;;;68.80;40.10;;;;;;;-0.89;73.14;102197.01;88446;1271;80693;-68
2022/03/17 02:38:02;;;;;;;69.90;41.00;;;;;;;-0.97;73.19;102201.25;88424;1270;99887;-69
2022/03/17 02:40:14;;;;;;;61.60;39.00;;;;;;;-1.07;73.31;102201.91;88432;1270;88975;-68
2022/03/17 02:42:23;;;;;;;63.70;38.50;;;;;;;-1.12;73.53;102198.45;88428;1271;92411;-68
2022/03/17 02:44:32;;;;;;;72.30;42.60;;;;;;;-1.17;73.61;102197.06;88286;1271;80350;-68
2022/03/17 02:46:41;;;;;;;67.00;40.90;;;;;;;-1.21;73.52;102199.38;88416;1270;81027;-68
2022/03/17 02:48:50;;;;;;;67.50;41.00;;;;;;;-1.19;73.83;102200.36;88377;1271;99320;-67
2022/03/17 02:50:58;;;;;;;69.80;40.80;;;;;;;-1.16;73.84;102203.95;88476;1271;88583;-69
2022/03/17 02:53:10;;;;;;;66.40;41.00;;;;;;;-1.14;73.87;102202.94;88457;1271;95206;-68
2022/03/17 02:55:19;;;;;;;67.30;43.40;;;;;;;-1.12;74.05;102203.20;88440;1271;79834;-64
2022/03/17 02:57:28;;;;;;;67.90;40.40;;;;;;;-1.08;74.13;102206.22;88450;1270;80776;-66
2022/03/17 02:59:37;;;;;;;69.80;41.90;;;;;;;-1.03;74.42;102205.45;88428;1271;99890;-65
2022/03/17 03:01:46;;;;;;;68.50;42.70;;;;;;;-0.97;74.46;102211.50;88482;1271;89607;-69
2022/03/17 03:03:56;;;;;;;68.10;41.90;;;;;;;-0.91;74.72;102209.63;88313;1271;96068;-64
2022/03/17 03:06:09;;;;;;;71.00;43.50;;;;;;;-0.88;74.36;102212.18;88463;1269;79749;-64
2022/03/17 03:08:18;;;;;;;72.80;43.10;;;;;;;-0.88;74.66;102210.39;88459;1271;80507;-66
2022/03/17 03:10:28;;;;;;;69.20;42.20;;;;;;;-0.89;74.60;102212.90;88433;1271;98209;-68
2022/03/17 03:12:37;;;;;;;72.40;43.10;;;;;;;-0.90;74.70;102211.54;88117;1271;470810;-68
2022/03/17 03:14:50;;;;;;;70.40;42.30;;;;;;;-0.94;74.79;102217.20;88455;1271;95767;-68
2022/03/17 03:17:00;;;;;;;70.60;44.30;;;;;;;-0.98;74.75;102220.05;88482;1269;80025;-66
2022/03/17 03:19:12;;;;;;;70.20;43.70;;;;;;;-1.03;74.43;102219.06;88442;1271;79976;-68
2022/03/17 03:21:21;;;;;;;69.80;43.60;;;;;;;-1.04;74.58;102221.62;88470;1271;98827;-69
2022/03/17 03:23:31;;;;;;;66.30;40.90;;;;;;;-1.07;74.72;102220.65;88452;1271;88213;-68
2022/03/17 03:25:41;;;;;;;73.20;43.10;;;;;;;-1.07;74.81;102226.48;88423;1271;95758;-65
2022/03/17 03:27:51;;;;;;;67.60;44.40;;;;;;;-1.00;75.17;102228.29;88473;1271;79497;-67
2022/03/17 03:30:01;;;;;;;70.10;43.10;;;;;;;-0.95;75.21;102231.42;88462;1271;82038;-68
2022/03/17 03:32:12;;;;;;;71.70;43.40;;;;;;;-0.90;75.20;102231.52;88455;1271;100046;-65
2022/03/17 03:34:22;;;;;;;69.80;43.00;;;;;;;-0.87;75.39;102234.73;88493;1271;87286;-68
2022/03/17 03:38:57;;;;;;;66.80;41.20;;;;;;;-0.81;75.58;102243.47;88422;1269;80070;-65
2022/03/17 03:41:09;;;;;;;72.10;43.40;;;;;;;-0.77;75.72;102244.33;88435;1271;83568;-65
2022/03/17 03:43:18;;;;;;;66.90;39.90;;;;;;;-0.72;75.67;102246.23;88448;1271;99307;-64
2022/03/17 03:45:28;;;;;;;64.30;39.30;;;;;;;-0.66;75.72;102251.27;88463;1271;89319;-64
2022/03/17 03:47:37;;;;;;;64.90;39.50;;;;;;;-0.62;75.81;102249.98;88451;1271;93698;-65
2022/03/17 03:49:46;;;;;;;65.20;38.80;;;;;;;-0.61;75.64;102254.18;88417;1271;78493;-67
2022/03/17 03:51:55;;;;;;;58.60;37.90;;;;;;;-0.59;75.74;102258.86;88479;1271;79372;-68
2022/03/17 03:54:19;;;;;;;59.40;38.40;;;;;;;-0.61;75.85;102262.16;88419;1271;99982;-69
2022/03/17 03:56:26;;;;;;;;;;;;;;;-0.69;75.43;102262.02;88457;1271;88883;-68
2022/03/17 03:58:35;;;;;;;64.10;38.60;;;;;;;-0.77;75.50;102262.73;88446;1271;95194;-68
2022/03/17 04:00:45;;;;;;;62.70;39.20;;;;;;;-0.84;75.41;102266.59;88480;1271;78201;-66
2022/03/17 04:02:55;;;;;;;65.20;40.20;;;;;;;-0.91;75.38;102268.88;88469;1271;82492;-67
2022/03/17 04:05:05;;;;;;;63.50;39.70;;;;;;;-1.02;75.31;102268.35;88481;1271;98877;-64
2022/03/17 04:07:15;;;;;;;61.30;39.80;;;;;;;-1.11;75.36;102274.61;88460;1271;86858;-64
2022/03/17 04:09:26;;;;;;;62.50;39.40;;;;;;;-1.22;75.02;102276.30;88432;1271;95085;-64
2022/03/17 04:11:35;;;;;;;61.10;39.50;;;;;;;-1.34;75.22;102286.75;88419;1271;80473;-64
2022/03/17 04:13:44;;;;;;;65.20;39.10;;;;;;;-1.44;75.02;102285.45;88484;1271;81528;-63
2022/03/17 04:15:53;;;;;;;63.80;40.50;;;;;;;-1.54;75.32;102289.20;88452;1270;98902;-64
2022/03/17 04:18:05;;;;;;;63.90;39.10;;;;;;;-1.62;75.22;102293.13;88475;1271;87402;-63
2022/03/17 04:20:15;;;;;;;58.90;37.00;;;;;;;-1.67;75.56;102291.39;88422;1271;95074;-68
2022/03/17 04:22:24;;;;;;;58.30;36.70;;;;;;;-1.67;75.44;102293.52;88443;1270;78873;-65
2022/03/17 04:24:37;;;;;;;58.60;36.90;;;;;;;-1.69;75.50;102292.71;88410;1270;83677;-67
2022/03/17 04:26:49;;;;;;;58.10;36.60;;;;;;;-1.70;75.72;102292.23;88432;1271;98840;-68
2022/03/17 04:28:59;;;;;;;57.70;35.00;;;;;;;-1.66;75.64;102295.05;88468;1271;86702;-65
2022/03/17 04:31:11;;;;;;;55.90;35.80;;;;;;;-1.63;75.81;102295.27;88435;1271;95285;-64
2022/03/17 04:33:23;;;;;;;54.50;35.10;;;;;;;-1.60;76.13;102294.77;88440;1271;77198;-64
2022/03/17 04:35:32;;;;;;;58.20;37.20;;;;;;;-1.55;76.05;102295.79;88461;1270;83025;-65
2022/03/17 04:37:41;;;;;;;54.00;36.00;;;;;;;-1.52;76.01;102297.97;88460;1271;99849;-64
2022/03/17 04:39:52;;;;;;;57.20;35.60;;;;;;;-1.55;76.18;102302.68;88327;1274;88053;-68
2022/03/17 04:42:01;;;;;;;53.10;35.20;;;;;;;-1.58;76.11;102304.59;88446;1271;94969;-67
2022/03/17 04:44:14;;;;;;;59.70;35.20;;;;;;;-1.67;75.83;102308.17;88430;1271;80015;-65
2022/03/17 04:46:25;;;;;;;57.40;36.70;;;;;;;-1.75;76.06;102307.27;88472;1271;80643;-64
2022/03/17 04:48:38;;;;;;;63.60;36.80;;;;;;;-1.80;76.15;102313.27;88434;1271;100026;-64
2022/03/17 04:50:50;;;;;;;55.00;35.20;;;;;;;-1.81;76.38;102314.21;88467;1271;89488;-67
2022/03/17 04:55:32;;;;;;;55.60;35.20;;;;;;;-1.74;76.21;102320.63;88430;1271;78164;-67
2022/03/17 04:57:41;;;;;;;58.20;36.50;;;;;;;-1.70;76.28;102325.41;88460;1271;80500;-66
2022/03/17 04:59:51;;;;;;;56.30;35.50;;;;;;;-1.65;76.31;102325.56;88446;1270;100046;-62
2022/03/17 05:02:03;;;;;;;63.70;37.00;;;;;;;-1.62;76.24;102325.79;88451;1271;86459;-64
2022/03/17 05:04:12;;;;;;;62.50;39.00;;;;;;;-1.59;76.62;102322.98;88455;1271;94309;-63
2022/03/17 05:06:22;;;;;;;59.20;38.10;;;;;;;-1.54;76.43;102325.99;88433;1271;80917;-65
2022/03/17 05:08:34;;;;;;;63.00;38.60;;;;;;;-1.49;76.49;102326.81;88484;1271;80990;-64
2022/03/17 05:10:44;;;;;;;69.00;41.20;;;;;;;-1.45;76.45;102327.33;88443;1271;100120;-67
2022/03/17 05:12:58;;;;;;;74.70;42.90;;;;;;;-1.40;76.45;102330.86;88472;1271;89065;-66
2022/03/17 05:15:09;;;;;;;73.80;43.00;;;;;;;-1.33;76.51;102330.20;88443;1271;95102;-65
2022/03/17 05:17:17;;;;;;;77.20;44.10;;;;;;;-1.25;76.62;102328.94;88454;1271;79218;-65
2022/03/17 05:19:29;;;;;;;72.80;43.40;;;;;;;-1.15;76.91;102327.79;88473;1271;82692;-64
2022/03/17 05:21:38;;;;;;;84.00;46.20;;;;;;;-0.99;77.01;102324.05;88448;1271;97960;-63
2022/03/17 05:23:51;;;;;;;80.20;41.30;;;;;;;-0.87;76.97;102321.73;88426;1271;88464;-65
2022/03/17 05:26:00;;;;;;;61.90;38.20;;;;;;;-0.79;76.99;102327.20;88433;1271;95817;-65
2022/03/17 05:28:13;;;;;;;58.10;36.00;;;;;;;-0.75;76.76;102329.31;88460;1271;80001;-64
2022/03/17 05:30:23;;;;;;;61.40;38.80;;;;;;;-0.70;77.05;102332.81;88438;1271;81404;-66
2022/03/17 05:32:35;;;;;;;64.70;38.40;;;;;;;-0.61;77.07;102334.51;88463;1271;98956;-65
2022/03/17 05:34:47;;;;;;;67.90;40.70;;;;;;;-0.52;76.95;102337.13;88433;1271;88983;-62
2022/03/17 05:36:56;;;;;;;70.90;40.30;;;;;;;-0.47;76.81;102342.01;88430;1271;94970;-64
2022/03/17 05:39:06;;;;;;;68.10;40.30;;;;;;;-0.45;76.80;102346.16;88468;1271;77745;-65
2022/03/17 05:41:15;;;;;;;68.70;40.40;;;;;;;-0.34;76.66;102350.59;88480;1268;80835;-65
2022/03/17 05:43:27;;;;;;;67.50;39.40;;;;;;;-0.25;76.58;102358.48;88433;1271;99764;-64
2022/03/17 05:45:43;;;;;;;62.30;38.50;;;;;;;-0.19;76.45;102360.85;88487;1271;89710;-63
2022/03/17 05:47:55;;;;;;;60.50;37.80;;;;;;;-0.14;76.32;102365.57;88437;1271;94087;-63
2022/03/17 05:50:04;;;;;;;65.50;37.10;;;;;;;0.07;76.51;102371.96;88455;1271;79278;-64
2022/03/17 05:52:14;;;;;;;54.80;35.10;;;;;;;0.76;76.41;102370.27;88450;1271;80146;-63
2022/03/17 05:54:31;;;;;;;61.20;37.20;;;;;;;1.61;76.30;102366.44;88450;1271;98457;-62
2022/03/17 05:56:40;;;;;;;60.30;37.50;;;;;;;2.71;76.25;102367.89;88470;1271;87714;-65
2022/03/17 05:58:50;;;;;;;84.00;45.80;;;;;;;3.83;75.99;102365.73;88444;1271;95479;-62
2022/03/17 06:00:59;;;;;;;60.90;39.10;;;;;;;5.05;75.47;102361.94;88437;1271;78685;-63
2022/03/17 06:03:09;;;;;;;61.30;38.10;;;;;;;6.16;74.10;102356.26;88458;1271;81930;-63
2022/03/17 06:05:18;;;;;;;57.70;38.30;;;;;;;7.16;73.16;102357.23;88478;1271;99452;-63
2022/03/17 06:07:35;;;;;;;57.30;37.10;;;;;;;7.93;72.23;102359.20;88488;1271;87038;-63
2022/03/17 06:09:44;;;;;;;53.00;37.10;;;;;;;8.62;71.47;102357.79;88459;1271;94653;-63
2022/03/17 06:11:57;;;;;;;51.00;33.30;;;;;;;9.26;70.20;102352.45;88456;1271;79131;-62
2022/03/17 06:14:09;;;;;;;49.40;34.30;;;;;;;9.82;68.66;102351.77;88484;1271;82560;-75
2022/03/17 06:16:19;;;;;;;53.00;34.90;;;;;;;10.36;67.25;102356.24;88459;1271;99996;-66
2022/03/17 06:18:28;;;;;;;60.10;39.10;;;;;;;10.66;65.96;102353.77;88455;1271;88171;-65
2022/03/17 06:20:40;;;;;;;52.10;36.30;;;;;;;10.62;64.69;102353.77;88461;1271;96289;-65
2022/03/17 06:22:51;;;;;;;53.10;35.10;;;;;;;10.50;64.05;102352.40;88480;1271;78094;-65
2022/03/17 06:25:00;;;;;;;55.40;35.80;;;;;;;10.69;63.78;102344.52;88454;1271;80020;-63
2022/03/17 06:27:12;;;;;;;50.40;35.80;;;;;;;11.10;63.22;102346.40;88462;1271;100288;-64
2022/03/17 06:29:24;;;;;;;49.50;35.10;;;;;;;11.42;61.61;102342.93;88475;1271;87513;-63
2022/03/17 06:31:36;;;;;;;54.20;38.20;;;;;;;11.84;60.83;102342.80;88444;1271;95753;-64
2022/03/17 06:33:46;;;;;;;52.50;38.50;;;;;;;11.95;59.41;102350.41;88471;1271;79913;-64
2022/03/17 06:35:59;;;;;;;49.30;34.70;;;;;;;11.67;59.10;102354.23;88472;1271;80967;-68
2022/03/17 06:38:12;;;;;;;41.40;32.20;;;;;;;11.35;58.78;102358.04;88459;1271;99531;-67
2022/03/17 06:40:24;;;;;;;42.10;31.70;;;;;;;11.61;58.59;102357.52;88433;1271;87841;-66
2022/03/17 06:42:37;;;;;;;39.50;32.00;;;;;;;11.54;57.40;102359.22;88459;1271;94626;-64
2022/03/17 06:44:46;;;;;;;40.00;32.10;;;;;;;12.27;57.38;102361.56;88467;1271;78405;-65
2022/03/17 06:46:55;;;;;;;42.20;31.60;;;;;;;12.77;54.90;102366.95;88462;1271;83148;-61
2022/03/17 06:49:07;;;;;;;38.60;30.30;;;;;;;12.90;54.35;102365.14;88291;1271;101912;-64
2022/03/17 06:51:19;;;;;;;40.40;31.60;;;;;;;12.97;52.52;102367.41;88447;1271;89248;-63
2022/03/17 06:53:31;;;;;;;38.70;32.40;;;;;;;12.65;51.21;102365.17;88473;1271;94217;-64
2022/03/17 06:55:44;;;;;;;40.20;34.00;;;;;;;13.30;52.35;102365.99;88483;1271;79819;-63
2022/03/17 06:57:54;;;;;;;41.00;31.10;;;;;;;13.94;51.24;102365.08;88452;1271;82360;-63
2022/03/17 07:00:09;;;;;;;37.80;30.70;;;;;;;14.01;51.17;102367.92;88463;1271;100015;-68
2022/03/17 07:02:22;;;;;;;38.60;31.40;;;;;;;14.34;49.23;102376.64;88468;1271;87919;-67
2022/03/17 07:04:31;;;;;;;39.50;30.60;;;;;;;14.56;49.67;102380.15;88465;1271;94613;-66
2022/03/17 07:06:42;;;;;;;35.90;30.20;;;;;;;14.77;49.71;102380.28;88460;1271;79357;-67
2022/03/17 07:09:01;;;;;;;37.20;30.60;;;;;;;15.03;48.87;102374.58;88441;1271;82383;-67
2022/03/17 07:11:10;;;;;;;40.40;31.60;;;;;;;15.08;48.66;102378.98;88463;1271;99786;-64
2022/03/17 07:13:19;;;;;;;37.30;31.60;;;;;;;15.02;47.24;102380.03;88468;1271;88000;-63
2022/03/17 07:15:29;;;;;;;37.00;30.30;;;;;;;14.72;45.42;102385.73;88451;1271;95746;-63
2022/03/17 07:17:40;;;;;;;41.50;31.80;;;;;;;15.04;45.62;102380.54;88477;1271;78643;-64
2022/03/17 07:22:09;;;;;;;38.00;31.00;;;;;;;15.95;45.22;102382.96;88438;1271;98854;-63
2022/03/17 07:24:20;;;;;;;37.70;31.10;;;;;;;16.62;43.80;102388.84;88296;1271;88729;-64
2022/03/17 07:26:30;;;;;;;36.60;29.60;;;;;;;16.50;43.20;102393.06;88468;1271;93196;-62
2022/03/17 07:28:39;;;;;;;35.80;30.20;;;;;;;16.96;42.71;102397.78;88431;1271;80520;-65
2022/03/17 07:30:48;;;;;;;33.90;29.00;;;;;;;16.89;40.92;102399.00;88491;1271;83131;-66
2022/03/17 07:33:00;;;;;;;33.00;28.40;;;;;;;16.82;40.68;102402.81;88442;1271;98119;-66
2022/03/17 07:35:12;;;;;;;36.40;29.90;;;;;;;17.27;41.63;102400.96;88457;1271;89599;-66
2022/03/17 07:37:21;;;;;;;32.80;29.40;;;;;;;17.54;41.46;102398.37;88446;1271;95248;-65
2022/03/17 07:39:30;;;;;;;33.00;28.70;;;;;;;18.37;41.45;102394.84;88474;1271;80026;-65
2022/03/17 07:41:39;;;;;;;32.80;29.30;;;;;;;18.93;39.79;102396.37;88475;1270;81572;-66
2022/03/17 07:43:48;;;;;;;32.20;28.80;;;;;;;19.23;40.32;102397.42;88475;1271;98987;-66
2022/03/17 07:45:57;;;;;;;33.10;27.70;;;;;;;19.34;37.90;102403.69;88510;1271;88101;-65
2022/03/17 07:48:08;;;;;;;32.10;28.60;;;;;;;19.53;38.87;102403.09;88428;1271;95413;-65
2022/03/17 07:50:18;;;;;;;34.50;29.60;;;;;;;19.81;38.08;102405.14;88480;1271;77901;-65
2022/03/17 07:52:27;;;;;;;35.30;29.10;;;;;;;20.00;37.35;102406.08;88459;1272;82873;-64
2022/03/17 07:54:36;;;;;;;33.20;29.50;;;;;;;19.92;36.22;102406.81;88496;1271;98963;-67
2022/03/17 07:56:45;;;;;;;32.20;27.80;;;;;;;19.82;36.73;102405.20;88462;1271;89685;-67
2022/03/17 07:58:55;;;;;;;33.40;29.60;;;;;;;20.14;37.01;102406.35;88444;1271;94443;-68
2022/03/17 08:01:05;;;;;;;32.30;28.90;;;;;;;20.62;36.63;102413.90;88471;1271;78361;-65
2022/03/17 08:03:14;;;;;;;30.90;27.60;;;;;;;20.78;36.68;102420.11;88452;1271;82334;-63
2022/03/17 08:05:23;;;;;;;39.10;30.40;;;;;;;20.97;34.39;102418.84;88429;1271;99369;-64
2022/03/17 08:07:32;;;;;;;31.20;28.10;;;;;;;20.72;34.57;102425.76;88479;1271;87957;-65
2022/03/17 08:09:41;;;;;;;31.70;28.50;;;;;;;20.76;33.34;102423.36;88470;1271;94066;-67
2022/03/17 08:11:50;;;;;;;33.80;30.20;;;;;;;20.62;33.22;102418.88;88462;1271;78930;-64
2022/03/17 08:14:02;;;;;;;32.30;28.90;;;;;;;20.71;32.67;102419.51;88463;1271;82766;-67
2022/03/17 08:16:14;;;;;;;32.30;28.70;;;;;;;20.72;33.80;102419.76;88484;1271;100051;-64
2022/03/17 08:18:24;;;;;;;34.10;29.50;;;;;;;21.06;33.67;102432.70;88481;1271;88040;-65
2022/03/17 08:20:33;;;;;;;32.60;29.10;;;;;;;21.05;32.94;102430.67;88456;1271;94016;-65
2022/03/17 08:22:43;;;;;;;32.30;29.00;;;;;;;20.40;32.71;102431.30;88463;1271;79725;-65
2022/03/17 08:24:52;;;;;;;32.90;29.50;;;;;;;20.46;32.74;102432.38;88454;1271;82418;-66
2022/03/17 08:27:04;;;;;;;32.40;29.10;;;;;;;20.68;32.46;102431.66;88427;1271;98913;-67
2022/03/17 08:29:16;;;;;;;31.90;28.70;;;;;;;20.46;32.89;102430.74;88469;1271;88774;-67
2022/03/17 08:31:25;;;;;;;32.60;29.40;;;;;;;20.60;31.98;102430.67;88450;1271;95125;-66
2022/03/17 08:33:35;;;;;;;32.90;29.40;;;;;;;20.65;31.59;102431.90;88473;1271;78784;-67
2022/03/17 08:35:46;;;;;;;32.80;29.40;;;;;;;20.86;32.20;102436.53;88487;1271;82374;-65
2022/03/17 08:37:59;;;;;;;32.00;28.20;;;;;;;20.89;32.69;102435.40;88450;1271;99946;-65
2022/03/17 08:40:10;;;;;;;31.00;27.70;;;;;;;20.48;31.08;102433.58;88487;1269;87885;-66
2022/03/17 08:42:19;;;;;;;30.60;27.10;;;;;;;20.67;32.54;102438.88;88443;1271;94773;-64
2022/03/17 08:44:29;;;;;;;31.70;28.50;;;;;;;20.35;30.97;102438.25;88454;1271;81324;-64
2022/03/17 08:49:20;;;;;;;31.80;28.40;;;;;;;19.85;31.68;102440.38;88427;1271;99140;-63
2022/03/17 08:51:29;;;;;;;31.10;27.90;;;;;;;19.80;30.81;102440.86;88463;1271;89586;-65
2022/03/17 08:53:38;;;;;;;31.00;27.80;;;;;;;19.38;30.54;102443.44;88441;1271;95758;-66
2022/03/17 08:55:49;;;;;;;29.60;26.50;;;;;;;19.06;31.26;102444.48;88464;1271;79576;-67
2022/03/17 08:58:00;;;;;;;30.20;26.10;;;;;;;18.91;31.52;102447.50;88495;1271;80418;-66
2022/03/17 09:00:14;;;;;;;33.20;29.50;;;;;;;18.83;32.20;102443.38;88431;1271;99610;-64
2022/03/17 09:02:26;;;;;;;30.20;27.10;;;;;;;18.67;31.55;102447.50;88466;1271;87434;-65
2022/03/17 09:04:35;;;;;;;30.40;27.20;;;;;;;18.47;31.08;102446.70;88447;1271;96140;-63
2022/03/17 09:06:47;;;;;;;29.60;26.60;;;;;;;17.99;31.26;102448.66;88446;1271;79640;-63
2022/03/17 09:08:56;;;;;;;29.10;26.00;;;;;;;17.51;30.89;102455.11;88465;1271;81919;-66
2022/03/17 09:11:05;;;;;;;28.30;25.40;;;;;;;17.43;31.93;102451.00;88476;1271;99837;-67
2022/03/17 09:13:17;;;;;;;28.80;25.80;;;;;;;16.97;32.08;102448.98;88480;1271;86878;-67
2022/03/17 09:15:30;;;;;;;29.30;26.20;;;;;;;17.37;32.17;102444.63;88431;1270;96044;-64
2022/03/17 09:17:45;;;;;;;35.40;30.50;;;;;;;17.68;32.32;102444.65;88467;1271;78093;-64
2022/03/17 09:19:55;;;;;;;30.10;26.60;;;;;;;17.72;31.85;102447.81;88449;1271;83435;-66
2022/03/17 09:22:08;;;;;;;29.40;26.30;;;;;;;17.90;31.72;102447.38;88474;1271;97280;-66
2022/03/17 09:24:17;;;;;;;30.80;27.10;;;;;;;17.46;31.56;102452.55;88454;1271;89042;-64
2022/03/17 09:26:29;;;;;;;27.30;24.20;;;;;;;17.32;31.76;102450.85;88443;1271;93687;-64
2022/03/17 09:28:42;;;;;;;27.80;25.00;;;;;;;17.29;31.62;102456.45;88380;1271;78425;-66
2022/03/17 09:30:51;;;;;;;26.70;23.60;;;;;;;17.55;32.02;102445.13;88448;1271;80070;-66
2022/03/17 09:33:03;;;;;;;28.10;25.10;;;;;;;17.74;31.31;102448.66;88463;1271;100071;-67
2022/03/17 09:35:16;;;;;;;27.00;23.90;;;;;;;17.45;31.95;102451.80;88439;1271;88687;-65
2022/03/17 09:37:25;;;;;;;28.90;25.80;;;;;;;17.48;31.98;102447.98;88445;1271;95980;-63
2022/03/17 09:39:44;;;;;;;27.70;24.60;;;;;;;17.56;31.71;102448.69;88419;1270;78473;-64
2022/03/17 09:41:52;;;;;;;26.90;24.10;;;;;;;17.27;31.07;102457.27;88436;1271;81886;-63
2022/03/17 09:44:05;;;;;;;27.90;24.80;;;;;;;17.11;30.99;102454.50;88401;1271;98748;-65
2022/03/17 09:46:18;;;;;;;27.50;23.50;;;;;;;16.81;31.69;102457.00;88412;1271;88168;-66
2022/03/17 09:48:30;;;;;;;28.80;24.30;;;;;;;16.34;32.49;102452.67;88436;1269;93838;-67
2022/03/17 09:50:39;;;;;;;28.90;23.90;;;;;;;16.19;32.55;102450.17;88460;1271;78634;-63
2022/03/17 09:52:53;;;;;;;30.70;26.20;;;;;;;15.96;32.49;102453.17;88435;1271;82668;-65
2022/03/17 09:55:09;;;;;;;29.10;23.40;;;;;;;15.70;32.91;102460.52;88457;1271;98647;-63
2022/03/17 09:57:19;;;;;;;27.00;22.30;;;;;;;14.77;33.34;102460.05;88455;1271;86686;-65
2022/03/17 09:59:28;;;;;;;29.50;24.60;;;;;;;14.44;34.07;102466.16;88418;1271;95323;-65
2022/03/17 10:01:41;;;;;;;29.30;23.80;;;;;;;14.15;34.27;102460.73;88463;1271;79388;-64
2022/03/17 10:03:52;;;;;;;30.90;24.50;;;;;;;13.65;34.96;102464.86;88312;1271;80921;-63
2022/03/17 10:06:06;;;;;;;27.20;23.60;;;;;;;13.32;35.57;102468.59;88417;1271;98156;-64
2022/03/17 10:08:20;;;;;;;31.00;25.50;;;;;;;12.93;36.01;102464.99;88480;1271;87100;-64
2022/03/17 10:10:40;;;;;;;30.80;23.80;;;;;;;12.76;36.64;102462.96;88305;1271;93303;-66
2022/03/17 10:13:07;;;;;;;28.90;23.10;;;;;;;12.65;36.97;102464.94;88297;1271;81876;-66
2022/03/17 10:15:22;;;;;;;30.10;24.00;;;;;;;12.39;37.40;102461.55;88437;1271;81547;-64